Time;durP1;ratioP1;P1;durP2;ratioP2;P2;SDS_P1;SDS_P2;PMS_P1;PMS_P2;Temp;Humidity;BMP_temperature;BMP_pressure;BME280_temperature;BME280_humidity;BME280_pressure;Samples;Min_cycle;Max_cycle;Signal;HPM_P1;HPM_P2
2023/06/27 00:01:19;;;;;;;;;13.00;12.00;;;;;25.43;54.68;100263.89;112040;1264;20092;-37
2023/06/27 00:03:51;;;;;;;;;11.00;10.00;;;;;25.42;54.83;100262.76;112140;1248;20033;-37
2023/06/27 00:06:19;;;;;;;;;13.00;12.00;;;;;25.42;54.77;100260.13;112119;1264;20791;-38
2023/06/27 00:08:47;;;;;;;;;13.00;10.00;;;;;25.42;54.91;100257.48;112295;1248;20131;-37
2023/06/27 00:11:14;;;;;;;;;12.50;12.50;;;;;25.42;54.92;100258.20;112170;1251;20124;-38
2023/06/27 00:13:41;;;;;;;;;15.00;13.00;;;;;25.41;54.99;100254.27;112343;1248;20884;-38
2023/06/27 00:16:13;;;;;;;;;12.00;10.00;;;;;25.42;55.15;100253.00;112151;1264;21805;-38
2023/06/27 00:18:40;;;;;;;;;13.00;12.00;;;;;25.43;55.28;100248.90;112114;1264;18962;-37
2023/06/27 00:21:07;;;;;;;;;12.00;10.00;;;;;25.43;55.10;100241.17;112245;1263;19568;-37
2023/06/27 00:23:35;;;;;;;;;14.00;13.00;;;;;25.41;55.37;100235.41;112008;1248;20133;-37
2023/06/27 00:26:02;;;;;;;;;10.00;10.00;;;;;25.40;55.56;100234.70;112177;1256;19963;-38
2023/06/27 00:28:30;;;;;;;;;14.00;12.50;;;;;25.39;55.60;100232.09;112059;1248;19441;-36
2023/06/27 00:30:57;;;;;;;;;14.00;12.00;;;;;25.38;55.77;100235.17;112247;1248;22991;-38
2023/06/27 00:33:24;;;;;;;;;13.00;12.50;;;;;25.37;55.79;100231.08;112015;1264;18754;-37
2023/06/27 00:35:52;;;;;;;;;12.00;10.00;;;;;25.36;55.92;100228.30;112187;1248;21156;-37
2023/06/27 00:38:19;;;;;;;;;13.50;13.00;;;;;25.34;55.93;100226.16;112022;1248;22868;-37
2023/06/27 00:40:46;;;;;;;;;14.00;12.67;;;;;25.33;56.09;100224.70;112208;1248;21090;-38
2023/06/27 00:43:14;;;;;;;;;12.50;11.00;;;;;25.32;55.98;100218.84;112042;1248;20748;-38
2023/06/27 00:45:41;;;;;;;;;16.50;14.00;;;;;25.31;56.15;100223.13;112156;1248;22795;-37
2023/06/27 00:48:08;;;;;;;;;12.50;12.00;;;;;25.30;56.08;100227.28;112054;1256;19929;-37
2023/06/27 00:50:36;;;;;;;;;13.00;12.00;;;;;25.28;56.07;100227.29;111929;1256;20727;-38
2023/06/27 00:53:03;;;;;;;;;12.50;12.50;;;;;25.29;56.15;100232.36;112106;1248;23214;-38
2023/06/27 00:55:31;;;;;;;;;12.50;11.00;;;;;25.29;56.08;100233.11;111710;1264;325232;-38
2023/06/27 00:57:58;;;;;;;;;12.00;12.00;;;;;25.29;56.13;100233.27;112091;1248;21222;-38
2023/06/27 01:00:26;;;;;;;;;16.00;13.50;;;;;25.29;56.25;100231.30;111953;1248;22712;-37
2023/06/27 01:02:55;;;;;;;;;13.00;12.00;;;;;25.29;56.31;100229.44;112058;1248;20316;-38
2023/06/27 01:05:22;;;;;;;;;15.00;13.00;;;;;25.28;56.61;100224.21;112164;1248;21073;-38
2023/06/27 01:07:50;;;;;;;;;14.00;12.00;;;;;25.27;56.47;100211.39;112009;1248;21713;-38
2023/06/27 01:10:17;;;;;;;;;17.00;14.00;;;;;25.27;56.68;100207.27;112160;1263;18915;-38
2023/06/27 01:12:45;;;;;;;;;16.00;16.00;;;;;25.24;56.68;100206.34;112006;1248;20835;-38
2023/06/27 01:15:12;;;;;;;;;14.00;14.00;;;;;25.25;56.63;100205.54;112144;1256;20331;-38
2023/06/27 01:17:39;;;;;;;;;13.00;13.00;;;;;25.25;56.65;100201.73;112029;1256;19888;-38
2023/06/27 01:20:07;;;;;;;;;17.00;16.00;;;;;25.23;56.89;100197.63;112193;1249;22113;-38
2023/06/27 01:22:34;;;;;;;;;20.67;17.33;;;;;25.22;56.96;100202.14;112026;1256;21456;-38
2023/06/27 01:25:02;;;;;;;;;18.00;18.00;;;;;25.21;57.13;100196.57;112208;1263;18661;-38
2023/06/27 01:27:30;;;;;;;;;19.00;19.00;;;;;25.22;57.07;100198.85;112012;1248;19327;-37
2023/06/27 01:29:57;;;;;;;;;22.50;21.00;;;;;25.22;57.17;100199.79;112180;1248;20104;-38
2023/06/27 01:32:24;;;;;;;;;20.00;20.00;;;;;25.21;57.36;100196.31;112040;1264;19992;-38
2023/06/27 01:34:52;;;;;;;;;25.00;22.00;;;;;25.19;57.51;100195.95;112189;1248;21022;-38
2023/06/27 01:37:19;;;;;;;;;;;;;;;25.20;57.63;100194.89;112042;1256;21566;-37
2023/06/27 01:39:46;;;;;;;;;21.67;20.00;;;;;25.19;57.75;100198.56;112190;1257;19897;-38
2023/06/27 01:42:14;;;;;;;;;21.00;20.50;;;;;25.19;57.83;100202.56;112080;1248;21505;-37
2023/06/27 01:44:41;;;;;;;;;25.00;21.00;;;;;25.18;57.89;100199.48;112046;1248;20181;-38
2023/06/27 01:47:08;;;;;;;;;28.00;24.00;;;;;25.19;58.17;100198.02;112098;1248;20002;-38
2023/06/27 01:49:35;;;;;;;;;26.00;24.00;;;;;25.18;58.22;100198.48;111951;1248;20901;-37
2023/06/27 01:52:03;;;;;;;;;22.00;20.00;;;;;25.18;58.21;100198.33;112097;1249;21531;-38
2023/06/27 01:54:30;;;;;;;;;21.00;18.00;;;;;25.18;58.30;100199.41;111938;1264;20000;-38
2023/06/27 01:56:58;;;;;;;;;21.00;20.00;;;;;25.18;58.40;100194.69;112118;1251;20935;-38
2023/06/27 01:59:25;;;;;;;;;19.00;18.00;;;;;25.17;58.57;100202.42;111990;1248;21779;-38
2023/06/27 02:01:52;;;;;;;;;21.00;18.00;;;;;25.15;58.92;100205.27;112111;1264;18739;-37
2023/06/27 02:04:20;;;;;;;;;14.00;14.00;;;;;25.14;59.03;100205.23;112010;1264;19415;-37
2023/06/27 02:06:47;;;;;;;;;20.33;18.00;;;;;25.14;58.91;100211.09;112163;1263;20114;-36
2023/06/27 02:09:14;;;;;;;;;15.33;13.33;;;;;25.14;58.82;100211.14;111992;1256;18556;-37
2023/06/27 02:11:42;;;;;;;;;18.00;16.50;;;;;25.14;58.76;100213.73;112204;1248;19412;-38
2023/06/27 02:14:09;;;;;;;;;13.50;13.50;;;;;25.11;58.76;100213.75;112011;1248;21468;-37
2023/06/27 02:16:36;;;;;;;;;14.00;14.00;;;;;25.09;58.69;100207.43;112181;1248;20321;-37
2023/06/27 02:19:04;;;;;;;;;13.50;13.50;;;;;25.09;58.51;100208.92;112048;1256;20818;-37
2023/06/27 02:21:31;;;;;;;;;11.00;10.00;;;;;25.07;58.41;100200.77;112153;1264;20266;-36
2023/06/27 02:23:58;;;;;;;;;12.50;10.00;;;;;25.06;58.20;100197.98;112068;1264;18738;-37
2023/06/27 02:26:26;;;;;;;;;9.00;9.00;;;;;25.05;57.95;100196.86;112017;1248;22019;-37
2023/06/27 02:28:53;;;;;;;;;9.00;9.00;;;;;25.06;57.77;100191.79;112041;1263;20286;-37
2023/06/27 02:31:21;;;;;;;;;12.00;9.00;;;;;25.03;57.60;100192.14;111963;1248;19356;-37
2023/06/27 02:33:48;;;;;;;;;9.00;9.00;;;;;25.04;57.63;100193.35;112066;1248;20672;-38
2023/06/27 02:36:16;;;;;;;;;9.00;9.00;;;;;25.03;57.69;100192.67;111955;1264;20137;-37
2023/06/27 02:38:43;;;;;;;;;12.00;9.00;;;;;25.03;57.60;100200.55;112124;1248;19614;-36
2023/06/27 02:41:10;;;;;;;;;10.00;9.00;;;;;25.03;57.61;100207.73;111942;1264;20577;-38
2023/06/27 02:43:39;;;;;;;;;9.00;9.00;;;;;25.03;57.59;100220.27;112112;1248;20178;-36
2023/06/27 02:46:07;;;;;;;;;9.67;8.67;;;;;25.01;57.74;100219.54;112172;1264;18986;-38
2023/06/27 02:48:34;;;;;;;;;9.00;8.00;;;;;24.98;57.66;100214.08;112044;1264;20797;-38
2023/06/27 02:51:01;;;;;;;;;9.00;9.00;;;;;24.96;57.66;100205.43;112238;1263;21375;-38
2023/06/27 02:53:29;;;;;;;;;10.00;8.00;;;;;24.95;57.56;100204.25;112077;1247;19529;-38
2023/06/27 02:55:57;;;;;;;;;9.33;9.00;;;;;24.96;57.15;100208.56;112058;1256;21104;-37
2023/06/27 02:58:24;;;;;;;;;8.00;7.33;;;;;24.96;57.28;100216.79;111974;1248;20118;-37
2023/06/27 03:00:52;;;;;;;;;8.50;8.50;;;;;24.93;57.06;100215.58;112163;1264;19540;-38
2023/06/27 03:03:19;;;;;;;;;9.00;9.00;;;;;24.92;57.23;100216.77;112002;1248;20819;-37
2023/06/27 03:05:46;;;;;;;;;10.00;9.00;;;;;24.93;57.08;100219.20;112196;1247;20328;-37
2023/06/27 03:08:14;;;;;;;;;8.00;8.00;;;;;24.93;57.04;100223.05;112035;1249;20982;-37
2023/06/27 03:10:41;;;;;;;;;9.00;9.00;;;;;24.93;57.06;100223.21;112134;1248;21010;-38
2023/06/27 03:13:08;;;;;;;;;8.00;8.00;;;;;24.91;57.01;100227.70;112038;1248;21615;-38
2023/06/27 03:15:36;;;;;;;;;10.00;9.67;;;;;24.91;57.00;100229.13;112015;1248;18695;-37
2023/06/27 03:18:03;;;;;;;;;9.50;9.50;;;;;24.91;57.11;100220.25;112086;1256;19505;-38
2023/06/27 03:20:30;;;;;;;;;12.00;10.00;;;;;24.92;57.15;100212.30;112004;1264;20127;-37
2023/06/27 03:22:58;;;;;;;;;18.33;17.33;;;;;24.90;57.19;100205.17;112099;1248;20816;-37
2023/06/27 03:25:25;;;;;;;;;8.67;8.67;;;;;24.90;57.13;100198.29;112010;1256;19413;-38
2023/06/27 03:27:52;;;;;;;;;11.00;10.00;;;;;24.90;57.17;100197.86;112166;1248;21696;-37
2023/06/27 03:30:20;;;;;;;;;10.00;10.00;;;;;24.89;57.20;100192.30;111982;1264;19636;-37
2023/06/27 03:32:47;;;;;;;;;9.50;9.50;;;;;24.90;57.27;100190.58;112115;1263;20103;-37
2023/06/27 03:35:14;;;;;;;;;8.00;8.00;;;;;24.90;57.16;100196.98;112007;1248;21664;-37
2023/06/27 03:37:42;;;;;;;;;9.00;8.67;;;;;24.89;57.27;100198.92;112188;1248;19998;-37
2023/06/27 03:40:09;;;;;;;;;13.00;12.00;;;;;24.89;57.27;100212.34;112020;1256;20661;-38
2023/06/27 03:42:36;;;;;;;;;14.33;14.33;;;;;24.89;57.28;100213.27;112208;1264;20299;-38
2023/06/27 03:45:04;;;;;;;;;12.00;12.00;;;;;24.88;57.18;100215.98;112047;1248;20377;-37
2023/06/27 03:47:31;;;;;;;;;9.00;9.00;;;;;24.87;57.41;100220.71;112132;1264;19432;-37
2023/06/27 03:49:58;;;;;;;;;10.67;10.00;;;;;24.87;57.23;100229.01;112048;1264;20107;-37
2023/06/27 03:52:26;;;;;;;;;13.00;12.67;;;;;24.86;57.15;100228.98;111975;1248;19793;-37
2023/06/27 03:54:53;;;;;;;;;12.00;12.00;;;;;24.86;57.24;100236.83;112072;1248;20729;-38
2023/06/27 03:57:20;;;;;;;;;14.00;13.00;;;;;24.86;57.19;100245.38;111957;1256;21825;-38
2023/06/27 03:59:48;;;;;;;;;14.00;14.00;;;;;24.87;57.07;100254.70;112131;1248;18868;-37
2023/06/27 04:02:15;;;;;;;;;15.00;14.50;;;;;24.85;57.29;100259.80;112019;1248;20996;-37
2023/06/27 04:04:42;;;;;;;;;19.00;13.67;;;;;24.85;57.37;100254.78;112119;1248;21543;-37
2023/06/27 04:07:10;;;;;;;;;14.00;14.00;;;;;24.84;57.18;100246.64;112004;1248;18579;-38
2023/06/27 04:09:37;;;;;;;;;19.00;17.00;;;;;24.83;57.40;100245.25;112123;1264;19406;-37
2023/06/27 04:12:05;;;;;;;;;16.33;14.67;;;;;24.84;57.19;100248.08;112005;1248;21533;-37
2023/06/27 04:14:32;;;;;;;;;13.00;13.00;;;;;24.83;57.38;100250.45;112156;1248;19045;-36
2023/06/27 04:16:59;;;;;;;;;16.00;14.00;;;;;24.82;57.04;100254.75;111994;1248;20938;-38
2023/06/27 04:19:27;;;;;;;;;13.00;13.00;;;;;24.82;57.07;100257.11;112163;1264;20153;-37
2023/06/27 04:21:55;;;;;;;;;19.00;17.00;;;;;24.82;57.15;100259.23;112048;1264;18801;-37
2023/06/27 04:24:22;;;;;;;;;18.00;17.00;;;;;24.81;57.01;100268.80;112167;1264;19604;-39
2023/06/27 04:26:49;;;;;;;;;18.00;16.50;;;;;24.81;56.92;100276.69;112035;1264;20151;-37
2023/06/27 04:29:16;;;;;;;;;13.00;12.50;;;;;24.81;56.71;100282.59;112205;1248;20324;-38
2023/06/27 04:31:44;;;;;;;;;14.00;13.00;;;;;24.79;56.88;100290.31;112069;1264;20778;-37
2023/06/27 04:34:11;;;;;;;;;14.00;13.00;;;;;24.77;56.68;100290.36;112143;1264;20123;-38
2023/06/27 04:36:40;;;;;;;;;12.00;10.00;;;;;24.75;56.46;100286.52;112068;1248;19994;-39
2023/06/27 04:39:08;;;;;;;;;12.00;12.00;;;;;24.75;56.38;100285.96;112099;1264;19658;-37
2023/06/27 04:41:35;;;;;;;;;10.00;10.00;;;;;24.75;56.45;100285.85;111982;1248;22625;-37
2023/06/27 04:44:02;;;;;;;;;10.00;10.00;;;;;24.71;56.40;100289.14;112139;1248;20019;-38
2023/06/27 04:46:30;;;;;;;;;13.00;12.50;;;;;24.70;56.38;100280.45;112009;1256;19442;-37
2023/06/27 04:48:57;;;;;;;;;9.00;9.00;;;;;24.71;56.12;100275.52;112138;1248;21641;-39
2023/06/27 04:51:25;;;;;;;;;12.00;12.00;;;;;24.70;56.04;100277.20;112010;1264;18581;-38
2023/06/27 04:53:52;;;;;;;;;13.00;10.00;;;;;24.70;55.99;100274.73;112136;1248;20860;-37
2023/06/27 04:56:19;;;;;;;;;19.00;17.00;;;;;24.70;55.80;100281.90;112004;1264;20096;-39
2023/06/27 04:58:47;;;;;;;;;10.00;10.00;;;;;24.63;55.77;100281.31;112173;1263;18955;-38
2023/06/27 05:01:14;;;;;;;;;10.00;9.50;;;;;24.57;55.69;100281.79;112034;1264;19462;-37
2023/06/27 05:03:42;;;;;;;;;13.00;12.00;;;;;24.50;55.85;100281.46;112166;1264;20114;-38
2023/06/27 05:06:09;;;;;;;;;10.00;9.00;;;;;24.47;55.79;100283.86;112018;1248;20259;-38
2023/06/27 05:08:37;;;;;;;;;10.00;9.00;;;;;24.44;55.75;100285.85;112209;1263;20681;-38
2023/06/27 05:11:04;;;;;;;;;13.00;13.00;;;;;24.43;55.67;100292.52;112028;1256;21498;-38
2023/06/27 05:13:31;;;;;;;;;15.33;13.00;;;;;24.47;55.53;100290.95;112201;1248;20034;-38
2023/06/27 05:15:59;;;;;;;;;17.00;16.00;;;;;24.48;55.52;100290.57;112044;1263;19604;-38
2023/06/27 05:18:26;;;;;;;;;12.00;11.00;;;;;24.48;55.36;100291.11;112148;1248;22702;-38
2023/06/27 05:20:53;;;;;;;;;12.00;12.00;;;;;24.46;55.45;100299.38;112046;1248;20139;-38
2023/06/27 05:23:21;;;;;;;;;14.00;12.00;;;;;24.48;55.24;100294.15;111986;1248;22064;-39
2023/06/27 05:25:49;;;;;;;;;10.67;10.00;;;;;24.48;55.31;100296.98;112035;1257;21401;-38
2023/06/27 05:28:16;;;;;;;;;11.00;9.00;;;;;24.46;55.31;100297.48;112208;1264;18816;-39
2023/06/27 05:30:44;;;;;;;;;10.00;10.00;;;;;24.44;55.36;100303.29;112054;1248;22284;-39
2023/06/27 05:33:11;;;;;;;;;11.50;10.00;;;;;24.43;55.45;100301.90;112115;1248;21599;-38
2023/06/27 05:35:38;;;;;;;;;8.50;8.00;;;;;24.44;55.31;100304.44;112077;1248;20044;-38
2023/06/27 05:38:06;;;;;;;;;9.00;9.00;;;;;24.35;55.38;100304.77;111949;1256;20668;-38
2023/06/27 05:40:33;;;;;;;;;12.00;9.00;;;;;23.78;56.62;100303.58;112081;1264;20097;-38
2023/06/27 05:43:00;;;;;;;;;9.00;9.00;;;;;23.50;57.31;100302.44;111957;1248;19799;-38
2023/06/27 05:45:28;;;;;;;;;9.00;8.00;;;;;23.43;57.66;100303.14;112103;1264;21010;-39
2023/06/27 05:47:55;;;;;;;;;12.00;11.00;;;;;23.45;57.98;100302.42;111968;1264;20484;-40
2023/06/27 05:50:22;;;;;;;;;9.00;8.00;;;;;23.46;58.12;100306.14;112085;1248;19665;-39
2023/06/27 05:52:50;;;;;;;;;9.00;9.00;;;;;23.39;58.08;100309.94;111997;1264;19372;-38
2023/06/27 05:55:17;;;;;;;;;11.00;11.00;;;;;23.29;58.14;100311.87;112119;1263;20000;-39
2023/06/27 05:57:44;;;;;;;;;14.00;14.00;;;;;23.18;58.00;100314.78;111984;1248;18728;-37
2023/06/27 06:00:13;;;;;;;;;9.00;9.00;;;;;23.16;57.70;100316.31;112163;1264;19450;-38
2023/06/27 06:02:40;;;;;;;;;11.00;8.00;;;;;23.13;57.87;100317.81;111989;1248;22824;-37
2023/06/27 06:05:09;;;;;;;;;8.00;8.00;;;;;23.09;57.90;100318.27;112098;1263;18777;-38
2023/06/27 06:07:36;;;;;;;;;14.00;14.00;;;;;23.05;57.79;100324.75;112109;1248;21869;-38
2023/06/27 06:10:03;;;;;;;;;14.33;12.00;;;;;23.00;57.78;100323.18;112068;1264;20124;-37
2023/06/27 06:12:31;;;;;;;;;11.00;11.00;;;;;22.84;58.25;100328.73;111936;1248;18747;-36
2023/06/27 06:14:58;;;;;;;;;10.00;8.00;;;;;22.75;58.20;100331.14;112066;1264;19545;-38
2023/06/27 06:17:25;;;;;;;;;8.00;8.00;;;;;22.89;57.44;100328.69;111946;1264;20121;-38
2023/06/27 06:19:53;;;;;;;;;9.00;8.00;;;;;22.89;57.23;100327.14;112107;1257;19924;-37
2023/06/27 06:22:20;;;;;;;;;8.00;8.00;;;;;22.92;57.03;100335.35;111989;1264;19220;-38
2023/06/27 06:24:48;;;;;;;;;10.00;10.00;;;;;22.98;57.22;100334.34;112096;1256;22613;-38
2023/06/27 06:27:15;;;;;;;;;8.00;8.00;;;;;23.03;56.68;100332.73;112007;1256;19661;-39
2023/06/27 06:29:42;;;;;;;;;7.00;7.00;;;;;23.03;57.01;100336.90;112135;1257;20891;-38
2023/06/27 06:32:10;;;;;;;;;10.50;8.00;;;;;23.10;56.97;100338.33;112020;1248;21856;-38
2023/06/27 06:34:37;;;;;;;;;8.00;8.00;;;;;23.05;56.99;100337.42;112145;1248;19706;-38
2023/06/27 06:37:04;;;;;;;;;9.00;8.00;;;;;23.06;57.05;100343.30;111959;1264;19338;-37
2023/06/27 06:39:32;;;;;;;;;9.00;8.00;;;;;23.03;57.08;100343.04;112155;1248;21550;-37
2023/06/27 06:41:59;;;;;;;;;11.50;10.50;;;;;22.94;57.19;100344.88;111990;1248;19977;-38
2023/06/27 06:44:26;;;;;;;;;11.00;11.00;;;;;22.96;56.99;100346.65;112144;1248;22470;-38
2023/06/27 06:46:54;;;;;;;;;14.67;11.33;;;;;23.10;56.59;100340.77;112046;1248;20138;-36
2023/06/27 06:49:21;;;;;;;;;9.00;8.00;;;;;23.05;56.79;100337.03;112114;1264;18785;-39
2023/06/27 06:51:48;;;;;;;;;10.33;9.00;;;;;23.13;56.61;100334.30;112042;1248;21992;-37
2023/06/27 06:54:16;;;;;;;;;14.00;12.00;;;;;23.11;56.35;100330.92;111898;1251;21783;-38
2023/06/27 06:56:43;;;;;;;;;14.00;12.00;;;;;23.06;56.15;100335.44;112108;1256;19512;-38
2023/06/27 06:59:10;;;;;;;;;9.00;9.00;;;;;23.06;55.85;100332.92;111928;1248;20951;-37
2023/06/27 07:01:38;;;;;;;;;8.00;8.00;;;;;23.06;55.26;100327.88;112090;1263;20120;-38
2023/06/27 07:04:05;;;;;;;;;9.00;8.00;;;;;23.05;54.72;100323.54;111988;1264;18840;-39
2023/06/27 07:06:32;;;;;;;;;8.00;7.50;;;;;23.08;54.31;100319.51;112116;1248;22045;-39
2023/06/27 07:09:00;;;;;;;;;9.00;9.00;;;;;23.10;54.36;100317.22;111963;1248;21810;-39
2023/06/27 07:11:27;;;;;;;;;8.00;7.67;;;;;23.09;53.69;100324.64;112157;1256;19553;-39
2023/06/27 07:13:54;;;;;;;;;11.00;9.00;;;;;23.11;52.94;100324.10;111985;1264;19349;-39
2023/06/27 07:16:22;;;;;;;;;7.00;7.00;;;;;23.20;52.72;100322.26;112166;1248;22884;-39
2023/06/27 07:18:49;;;;;;;;;9.00;9.00;;;;;23.27;52.81;100318.20;112045;1248;20092;-39
2023/06/27 07:21:16;;;;;;;;;7.00;7.00;;;;;23.33;52.60;100322.62;112203;1251;20887;-39
2023/06/27 07:23:44;;;;;;;;;9.00;9.00;;;;;23.39;52.77;100322.14;112025;1264;20510;-38
2023/06/27 07:26:11;;;;;;;;;11.00;9.00;;;;;23.34;53.00;100325.88;112057;1264;19690;-36
2023/06/27 07:28:38;;;;;;;;;8.00;8.00;;;;;23.23;52.93;100332.55;112089;1248;22133;-37
2023/06/27 07:31:06;;;;;;;;;8.00;8.00;;;;;23.23;53.00;100328.17;111938;1248;21549;-37
2023/06/27 07:33:33;;;;;;;;;14.00;9.00;;;;;23.29;52.88;100332.02;112135;1264;18627;-38
2023/06/27 07:36:00;;;;;;;;;9.00;9.00;;;;;23.32;52.71;100331.91;111984;1263;19277;-37
2023/06/27 07:38:28;;;;;;;;;7.50;7.00;;;;;23.29;52.59;100326.98;112098;1248;22641;-38
2023/06/27 07:40:55;;;;;;;;;9.00;9.00;;;;;23.34;52.20;100321.44;111995;1248;19688;-37
2023/06/27 07:43:22;;;;;;;;;12.00;11.00;;;;;23.33;51.68;100326.11;112138;1248;21901;-37
2023/06/27 07:45:50;;;;;;;;;8.00;8.00;;;;;23.39;51.64;100318.60;111987;1248;21963;-37
2023/06/27 07:48:17;;;;;;;;;9.00;8.00;;;;;23.49;51.45;100316.92;112174;1264;18890;-37
2023/06/27 07:50:44;;;;;;;;;8.00;8.00;;;;;23.58;51.34;100315.23;112003;1248;22106;-37
2023/06/27 07:53:12;;;;;;;;;8.00;8.00;;;;;23.48;51.90;100315.45;112170;1264;21481;-37
2023/06/27 07:55:39;;;;;;;;;11.00;9.00;;;;;23.29;52.22;100320.79;112019;1264;19497;-37
2023/06/27 07:58:06;;;;;;;;;10.00;10.00;;;;;23.21;52.12;100320.88;112171;1248;22391;-38
2023/06/27 08:00:34;;;;;;;;;9.00;8.00;;;;;23.27;51.77;100309.17;112036;1264;22554;-37
2023/06/27 08:03:02;;;;;;;;;9.00;8.00;;;;;23.37;51.69;100309.42;112175;1264;18629;-38
2023/06/27 08:05:31;;;;;;;;;9.00;9.00;;;;;23.26;51.42;100304.21;111992;1248;19336;-37
2023/06/27 08:07:59;;;;;;;;;7.00;7.00;;;;;23.31;50.91;100300.23;112044;1247;20127;-37
2023/06/27 08:10:27;;;;;;;;;8.50;8.50;;;;;23.39;50.80;100300.67;112173;1264;21074;-38
2023/06/27 08:12:55;;;;;;;;;7.00;7.00;;;;;23.49;50.49;100300.45;111987;1251;20788;-37
2023/06/27 08:15:22;;;;;;;;;9.00;9.00;;;;;23.50;50.57;100307.66;112123;1248;21457;-37
2023/06/27 08:17:50;;;;;;;;;8.00;8.00;;;;;23.41;50.86;100311.42;112010;1251;19602;-37
2023/06/27 08:20:18;;;;;;;;;9.00;9.00;;;;;23.35;51.14;100308.50;112138;1264;20644;-37
2023/06/27 08:22:45;;;;;;;;;10.00;9.00;;;;;23.38;50.96;100314.94;111965;1264;19973;-38
2023/06/27 08:25:12;;;;;;;;;11.50;11.00;;;;;23.37;50.74;100311.62;112107;1248;19676;-38
2023/06/27 08:27:40;;;;;;;;;8.50;8.50;;;;;23.43;50.15;100314.92;111977;1248;22098;-38
2023/06/27 08:30:07;;;;;;;;;9.67;9.00;;;;;23.42;50.08;100310.63;112148;1256;21706;-38
2023/06/27 08:32:34;;;;;;;;;9.00;8.00;;;;;23.44;49.48;100307.94;112007;1248;19639;-38
2023/06/27 08:35:05;;;;;;;;;8.00;8.00;;;;;23.48;49.60;100308.20;112181;1264;19384;-38
2023/06/27 08:37:33;;;;;;;;;9.00;8.00;;;;;23.49;49.80;100315.36;112143;1264;20165;-38
2023/06/27 08:40:00;;;;;;;;;11.00;8.00;;;;;23.30;50.05;100322.19;111988;1256;19482;-38
2023/06/27 08:42:31;;;;;;;;;8.00;8.00;;;;;23.46;49.69;100320.83;112107;1263;21076;-39
2023/06/27 08:44:59;;;;;;;;;8.50;8.00;;;;;23.51;49.84;100320.04;112102;1248;21489;-37
2023/06/27 08:47:26;;;;;;;;;9.00;8.00;;;;;23.53;49.75;100316.46;112163;1264;19899;-38
2023/06/27 08:49:54;;;;;;;;;9.00;8.00;;;;;23.63;49.36;100311.88;112045;1248;21894;-38
2023/06/27 08:52:21;;;;;;;;;8.00;7.00;;;;;23.70;48.94;100317.77;112001;1248;21647;-38
2023/06/27 08:54:48;;;;;;;;;7.67;7.00;;;;;23.80;48.62;100316.74;112073;1264;18784;-38
2023/06/27 08:57:16;;;;;;;;;8.00;8.00;;;;;23.74;48.50;100316.52;111983;1248;21318;-38
2023/06/27 08:59:44;;;;;;;;;8.00;8.00;;;;;23.62;48.64;100328.07;112104;1264;21679;-38
2023/06/27 09:02:11;;;;;;;;;9.00;8.00;;;;;23.62;49.17;100331.29;112195;1248;19502;-37
2023/06/27 09:04:41;;;;;;;;;7.00;7.00;;;;;23.55;49.33;100331.67;112034;1248;22235;-37
2023/06/27 09:07:10;;;;;;;;;7.00;7.00;;;;;23.47;48.57;100322.77;112088;1248;21802;-38
2023/06/27 09:09:37;;;;;;;;;9.00;7.00;;;;;23.52;47.90;100332.42;112121;1248;19696;-38
2023/06/27 09:12:06;;;;;;;;;12.00;9.00;;;;;23.60;47.83;100326.60;112015;1264;20738;-37
2023/06/27 09:14:33;;;;;;;;;7.00;7.00;;;;;23.62;48.15;100337.86;112107;1264;20288;-37
2023/06/27 09:17:02;;;;;;;;;8.00;8.00;;;;;23.43;48.07;100338.73;111971;1248;20056;-37
2023/06/27 09:19:31;;;;;;;;;9.00;9.00;;;;;23.31;48.09;100339.10;112074;1248;20762;-37
2023/06/27 09:21:58;;;;;;;;;7.00;7.00;;;;;23.43;48.02;100332.34;112157;1248;20199;-38
2023/06/27 09:24:27;;;;;;;;;8.50;8.50;;;;;23.60;48.03;100334.46;112046;1264;19592;-37
2023/06/27 09:26:54;;;;;;;;;12.00;11.00;;;;;23.66;47.95;100339.27;112009;1248;21942;-38
2023/06/27 09:29:21;;;;;;;;;11.00;9.00;;;;;23.59;47.84;100340.26;112198;1264;20135;-37
2023/06/27 09:31:49;;;;;;;;;8.00;8.00;;;;;23.61;47.71;100333.64;112039;1248;20008;-38
2023/06/27 09:34:16;;;;;;;;;7.00;7.00;;;;;23.66;47.65;100333.46;112138;1264;19690;-38
2023/06/27 09:36:43;;;;;;;;;7.00;7.00;;;;;23.72;47.12;100334.31;112065;1264;22474;-38
2023/06/27 09:39:12;;;;;;;;;5.00;5.00;;;;;23.81;46.83;100331.35;111911;1264;18867;-38
2023/06/27 09:41:39;;;;;;;;;8.00;8.00;;;;;23.85;46.72;100330.90;111985;1264;20695;-38
2023/06/27 09:44:07;;;;;;;;;8.67;7.67;;;;;23.77;46.75;100336.27;112176;1248;20582;-37
2023/06/27 09:46:34;;;;;;;;;6.00;6.00;;;;;23.81;46.84;100332.16;112021;1248;19965;-38
2023/06/27 09:49:01;;;;;;;;;5.00;5.00;;;;;23.92;46.55;100335.88;112226;1264;19359;-38
2023/06/27 09:51:29;;;;;;;;;5.00;5.00;;;;;23.93;46.11;100332.81;112066;1248;20250;-39
2023/06/27 09:53:56;;;;;;;;;5.00;5.00;;;;;23.97;46.27;100335.84;112079;1264;18727;-39
2023/06/27 09:56:23;;;;;;;;;8.00;6.00;;;;;23.80;46.36;100344.62;112063;1256;20695;-39
2023/06/27 09:58:52;;;;;;;;;5.00;5.00;;;;;23.67;46.21;100344.06;111944;1264;20124;-39
2023/06/27 10:01:19;;;;;;;;;5.00;5.00;;;;;23.56;46.21;100337.39;112010;1248;19607;-39
2023/06/27 10:03:48;;;;;;;;;8.00;7.00;;;;;23.61;46.37;100339.91;112217;1248;19781;-38
2023/06/27 10:06:16;;;;;;;;;5.00;5.00;;;;;23.74;46.37;100339.76;111987;1248;20438;-39
2023/06/27 10:08:44;;;;;;;;;5.00;5.00;;;;;23.74;45.87;100345.20;112068;1264;18838;-38
2023/06/27 10:11:11;;;;;;;;;7.00;7.00;;;;;23.76;45.33;100342.38;111979;1251;20859;-39
2023/06/27 10:13:38;;;;;;;;;7.00;7.00;;;;;23.85;45.17;100344.77;112093;1248;21589;-39
2023/06/27 10:16:05;;;;;;;;;5.00;5.00;;;;;23.79;44.56;100343.27;111994;1256;19575;-41
2023/06/27 10:18:33;;;;;;;;;5.00;5.00;;;;;23.75;44.33;100340.17;112110;1251;20773;-39
2023/06/27 10:21:00;;;;;;;;;10.00;9.00;;;;;23.80;44.38;100338.05;111966;1248;21560;-39
2023/06/27 10:23:28;;;;;;;;;8.00;8.00;;;;;23.85;44.65;100330.44;112050;1264;19677;-39
2023/06/27 10:25:55;;;;;;;;;9.00;9.00;;;;;23.93;44.22;100330.29;112026;1264;19632;-39
2023/06/27 10:28:22;;;;;;;;;9.00;8.00;;;;;24.05;44.34;100326.46;112128;1257;21700;-39
2023/06/27 10:30:50;;;;;;;;;6.00;6.00;;;;;24.04;43.73;100325.34;111973;1264;19557;-38
2023/06/27 10:33:17;;;;;;;;;6.00;6.00;;;;;24.09;43.63;100320.79;112178;1264;19358;-38
2023/06/27 10:35:44;;;;;;;;;5.67;5.67;;;;;24.12;43.38;100322.56;111989;1248;21550;-39
2023/06/27 10:38:12;;;;;;;;;5.33;5.00;;;;;24.12;43.41;100323.58;112164;1264;18802;-39
2023/06/27 10:40:39;;;;;;;;;6.00;6.00;;;;;24.02;43.22;100322.88;111993;1264;19383;-39
2023/06/27 10:43:06;;;;;;;;;6.00;6.00;;;;;24.01;43.05;100321.29;112173;1263;20105;-38
2023/06/27 10:45:34;;;;;;;;;6.00;6.00;;;;;24.09;42.96;100317.66;112054;1248;18676;-39
2023/06/27 10:48:01;;;;;;;;;7.00;6.50;;;;;24.08;42.59;100320.49;112073;1256;20766;-39
2023/06/27 10:50:32;;;;;;;;;7.00;5.50;;;;;24.06;42.98;100321.11;112061;1264;21715;-39
2023/06/27 10:53:00;;;;;;;;;6.00;6.00;;;;;24.02;43.40;100323.00;112020;1264;18704;-38
2023/06/27 10:55:27;;;;;;;;;6.00;6.00;;;;;24.00;43.59;100324.48;112190;1264;19545;-39
2023/06/27 10:57:58;;;;;;;;;5.50;5.00;;;;;24.01;43.23;100327.52;112004;1248;21992;-39
2023/06/27 11:00:26;;;;;;;;;8.00;6.00;;;;;24.07;43.36;100326.34;111915;1264;18721;-39
2023/06/27 11:02:54;;;;;;;;;5.00;5.00;;;;;24.10;42.83;100329.05;112093;1248;20839;-40
2023/06/27 11:05:23;;;;;;;;;5.00;5.00;;;;;24.14;42.69;100332.17;112154;1248;21402;-39
2023/06/27 11:07:51;;;;;;;;;4.50;4.50;;;;;24.15;42.13;100341.65;112011;1248;19927;-38
2023/06/27 11:10:18;;;;;;;;;4.67;4.00;;;;;24.03;41.68;100341.63;112144;1263;19419;-38